• Join FlightAware (Why Join?)
  • Login
  • US Flag 
07:49AM EDT


 

Airport Tracker/Info


-or-


 

Live Flight TrackerFlight Track Log ✈ DAL6036 ✈ 26-Apr-2013 ✈ KDTW - KTVC

Flight Track Log - Related Links

Times and Time Zones

All times are in EDT time to prevent confusion due to time zone crossing. See the DAL6036 flight status page for this flight to view local times or setup timezone preferences in your user account.

Time Position Orientation Groundspeed Altitude Reporting Facility
EDT Latitude Longitude Course Direction KTS MPH feet Rate Location/Type
08:25PM 42.2017 -83.3583 North 163 188 1,300  Level Cleveland Center
08:26PM 42.1669 -83.4128 229° Southwest 178 205 4,200 2,040 Climbing Cleveland Center
08:27PM 42.1486 -83.4764 249° West 231 266 5,800 1,800 Climbing Cleveland Center
08:28PM 42.5635 -83.3500 North  Level FlightAware Approximate
08:28PM 42.1883 -83.5539 305° West 261 300 7,900  Level Cleveland Center
08:29PM 42.6544 -83.3500 North  Level FlightAware Approximate
08:29PM 42.2278 -83.6342 304° West 264 304 10,500  Level Cleveland Center
08:30PM 42.7453 -83.3500 North  Level FlightAware Approximate
08:30PM 42.2736 -83.7178 307° West 277 319 11,300  Level Cleveland Center
08:31PM 42.3639 -83.6997 North 258 297 12,100 840 Climbing Cleveland Center
08:32PM 42.4572 -83.6339 27° Northeast 314 361 13,000 1,020 Climbing Cleveland Center
08:33PM 42.5614 -83.6361 359° North 328 377 14,200 1,200 Climbing Cleveland Center
08:34PM 42.6583 -83.6775 343° North 350 403 15,500 1,320 Climbing Cleveland Center
08:35PM 42.7531 -83.7219 341° North 350 403 16,900 1,140 Climbing Cleveland Center
08:36PM 42.8497 -83.7664 341° North 360 414 17,800 540 Climbing Cleveland Center
08:37PM 42.9464 -83.8111 341° North 360 414 18,000 60 Climbing Cleveland Center
08:38PM 43.0514 -83.8592 342° North 376 433 18,000  Level Cleveland Center
08:39PM 43.1586 -83.9047 343° North 387 445 18,000  Level Cleveland Center
08:40PM 43.2633 -83.9558 340° North 387 445 18,000  Level Cleveland Center
08:42PM 43.4564 -84.0422 342° North 402 463 18,000  Level Minneapolis Center
08:43PM 43.5544 -84.1056 335° Northwest 397 457 18,000  Level Minneapolis Center
08:44PM 43.6344 -84.2083 317° Northwest 394 453 18,000  Level Minneapolis Center
08:45PM 43.7308 -84.3294 318° Northwest 392 451 18,000  Level Minneapolis Center
08:46PM 43.8108 -84.4322 317° Northwest 394 453 18,000  Level Minneapolis Center
08:47PM 43.8914 -84.5339 318° Northwest 393 452 18,000 -300 Level Minneapolis Center
08:48PM 43.9717 -84.6361 318° Northwest 393 452 17,500 -1,080 Descending Minneapolis Center
08:49PM 44.0581 -84.7486 317° Northwest 375 432 15,800 -1,740 Descending Minneapolis Center
08:50PM 44.1286 -84.8397 317° Northwest 356 410 14,000 -1,680 Descending Minneapolis Center
08:51PM 44.1942 -84.9236 317° Northwest 334 384 12,300 -1,440 Descending Minneapolis Center
08:52PM 44.2506 -84.9986 316° Northwest 296 341 11,100 -1,500 Descending Minneapolis Center
08:53PM 44.2997 -85.0619 317° Northwest 255 293 9,300 -1,800 Descending Minneapolis Center
08:54PM 44.3492 -85.1286 316° Northwest 248 285 7,400 -2,040 Descending Minneapolis Center
08:55PM 44.4203 -85.1886 329° Northwest 250 288 5,100 -2,040 Descending Minneapolis Center
08:56PM 44.4831 -85.2372 331° Northwest 254 292 3,200 -1,020 Descending Minneapolis Center
08:57PM 44.5461 -85.2847 332° Northwest 257 296 3,100 -120 Descending Minneapolis Center
08:58PM 44.6108 -85.3344 331° Northwest 261 300 3,000 -120 Descending Minneapolis Center